Time;durP1;ratioP1;P1;durP2;ratioP2;P2;SDS_P1;SDS_P2;PMS_P1;PMS_P2;Temp;Humidity;BMP_temperature;BMP_pressure;BME280_temperature;BME280_humidity;BME280_pressure;Samples;Min_cycle;Max_cycle;Signal;HPM_P1;HPM_P2
2023/06/20 00:00:49;;;;;;;0.70;0.70;;;;;;;21.57;100.00;100050.22;5072329;28;20194;-74
2023/06/20 00:03:16;;;;;;;0.70;0.70;;;;;;;21.54;100.00;100045.03;5071945;28;20238;-72
2023/06/20 00:05:44;;;;;;;0.70;0.70;;;;;;;21.59;100.00;100046.63;5072103;28;20210;-72
2023/06/20 00:08:12;;;;;;;0.80;0.80;;;;;;;21.67;100.00;100041.97;5072036;28;20186;-72
2023/06/20 00:10:39;;;;;;;0.70;0.70;;;;;;;21.05;100.00;99967.31;5058816;28;20227;-72
2023/06/20 00:13:07;;;;;;;0.70;0.70;;;;;;;21.45;100.00;100053.22;5072082;28;20199;-72
2023/06/20 00:15:34;;;;;;;0.80;0.80;;;;;;;21.38;100.00;100046.38;5046885;28;20289;-73
2023/06/20 00:18:00;;;;;;;0.80;0.80;;;;;;;21.29;100.00;100044.91;5062126;28;20194;-72
2023/06/20 00:20:28;;;;;;;0.70;0.70;;;;;;;21.27;100.00;100033.53;5072105;28;20203;-72
2023/06/20 00:22:55;;;;;;;0.90;0.90;;;;;;;21.42;100.00;100042.75;5072130;28;20225;-72
2023/06/20 00:25:23;;;;;;;0.77;0.77;;;;;;;21.40;100.00;100012.94;5072158;28;20202;-73
2023/06/20 00:27:50;;;;;;;0.70;0.70;;;;;;;21.39;100.00;100025.25;5071672;28;20199;-73
2023/06/20 00:30:17;;;;;;;0.80;0.80;;;;;;;21.54;100.00;100045.03;5071213;28;20230;-72
2023/06/20 00:32:44;;;;;;;0.70;0.70;;;;;;;21.63;100.00;100042.09;5071277;28;20214;-72
2023/06/20 00:35:10;;;;;;;0.80;0.80;;;;;;;21.60;100.00;100031.66;5071732;28;20199;-73
2023/06/20 00:37:38;;;;;;;0.70;0.70;;;;;;;21.63;100.00;100044.75;5036247;28;20199;-73
2023/06/20 00:40:07;;;;;;;1.65;1.55;;;;;;;21.69;100.00;100041.91;5071647;28;20209;-72
2023/06/20 00:42:35;;;;;;;0.70;0.70;;;;;;;21.58;100.00;100012.38;5071081;28;20239;-72
2023/06/20 00:45:03;;;;;;;0.70;0.70;;;;;;;21.69;100.00;100050.69;5071130;28;20202;-72
2023/06/20 00:47:29;;;;;;;0.80;0.80;;;;;;;21.70;100.00;100048.94;5071228;28;20199;-72
2023/06/20 00:49:57;;;;;;;0.70;0.70;;;;;;;21.90;100.00;100058.88;5071163;28;20646;-73
2023/06/20 00:52:25;;;;;;;0.70;0.70;;;;;;;21.80;100.00;100042.44;5070958;28;20665;-72
2023/06/20 00:54:51;;;;;;;0.70;0.70;;;;;;;21.92;100.00;100063.22;5071544;28;20203;-73
2023/06/20 00:57:20;;;;;;;0.70;0.70;;;;;;;22.04;100.00;100052.28;5071416;28;20203;-73
2023/06/20 00:59:49;;;;;;;0.70;0.70;;;;;;;22.15;100.00;100054.56;5071239;28;20210;-73
2023/06/20 01:02:17;;;;;;;0.80;0.80;;;;;;;22.14;100.00;100048.44;5071390;28;20741;-73
2023/06/20 01:04:46;;;;;;;0.95;0.90;;;;;;;22.15;100.00;100054.56;5071604;28;20199;-73
2023/06/20 01:07:19;;;;;;;0.93;0.93;;;;;;;21.69;100.00;100060.38;5071493;28;20199;-73
2023/06/20 01:09:52;;;;;;;0.70;0.70;;;;;;;21.41;100.00;100070.03;5071050;28;20657;-74
2023/06/20 01:12:30;;;;;;;0.70;0.70;;;;;;;21.29;100.00;100059.88;5071372;28;20198;-73
2023/06/20 01:15:09;;;;;;;0.60;0.60;;;;;;;21.13;100.00;100064.69;5071263;28;20281;-73
2023/06/20 01:17:42;;;;;;;0.60;0.60;;;;;;;20.93;100.00;100033.59;5075535;28;20199;-73
2023/06/20 01:20:13;;;;;;;0.70;0.70;;;;;;;20.89;100.00;100068.84;5075717;28;20627;-73
2023/06/20 01:22:47;;;;;;;0.70;0.70;;;;;;;20.90;100.00;100065.31;5075065;28;20693;-73
2023/06/20 01:25:31;;;;;;;0.70;0.70;;;;;;;20.84;100.00;100062.84;5075591;28;20260;-72
2023/06/20 01:28:06;;;;;;;0.80;0.80;;;;;;;20.75;100.00;100052.56;5073503;28;20198;-72
2023/06/20 01:30:40;;;;;;;0.70;0.70;;;;;;;20.71;100.00;100048.25;5075462;28;20639;-74
2023/06/20 01:33:09;;;;;;;0.70;0.70;;;;;;;20.37;100.00;100029.00;5074953;28;20198;-72
2023/06/20 01:35:38;;;;;;;0.80;0.80;;;;;;;20.56;100.00;100051.28;5075557;28;20283;-72
2023/06/20 01:38:09;;;;;;;0.80;0.80;;;;;;;20.41;100.00;100042.03;5075090;28;20662;-72
2023/06/20 01:40:38;;;;;;;0.65;0.65;;;;;;;20.11;100.00;99974.31;5075217;28;20289;-72
2023/06/20 01:43:07;;;;;;;0.60;0.60;;;;;;;20.49;100.00;100041.81;5074883;28;20204;-73
2023/06/20 01:45:39;;;;;;;0.70;0.70;;;;;;;20.59;100.00;100040.69;5040030;28;20646;-72
2023/06/20 01:48:09;;;;;;;0.70;0.70;;;;;;;20.49;100.00;100039.19;5074703;28;20203;-73
2023/06/20 01:50:38;;;;;;;0.93;0.93;;;;;;;20.31;100.00;100008.06;5075022;28;20650;-73
2023/06/20 01:53:08;;;;;;;0.70;0.70;;;;;;;20.47;100.00;100031.34;5074499;28;20571;-73
2023/06/20 01:55:37;;;;;;;0.63;0.63;;;;;;;20.46;100.00;100034.00;5074625;28;20704;-73
2023/06/20 01:58:05;;;;;;;0.80;0.80;;;;;;;20.50;100.00;100035.66;5063497;28;20259;-74
2023/06/20 02:00:33;;;;;;;0.70;0.70;;;;;;;20.46;100.00;100039.28;5074773;28;20205;-73
2023/06/20 02:03:02;;;;;;;0.70;0.70;;;;;;;20.56;100.00;100036.38;5036395;28;20191;-73
2023/06/20 02:05:32;;;;;;;0.80;0.80;;;;;;;20.67;100.00;100042.22;5069458;28;20257;-74
2023/06/20 02:08:00;;;;;;;0.70;0.70;;;;;;;20.67;100.00;100033.44;5074776;28;20199;-73
2023/06/20 02:10:29;;;;;;;0.70;0.70;;;;;;;20.71;100.00;100041.22;5035970;28;20647;-73
2023/06/20 02:12:57;;;;;;;0.70;0.70;;;;;;;20.61;100.00;100033.63;5063999;28;20716;-72
2023/06/20 02:15:26;;;;;;;0.70;0.70;;;;;;;20.75;100.00;100063.09;5074722;28;20226;-73
2023/06/20 02:17:53;;;;;;;1.08;0.98;;;;;;;20.57;100.00;100064.44;5074289;28;20226;-72
2023/06/20 02:20:21;;;;;;;0.70;0.70;;;;;;;20.55;100.00;100066.25;5036042;28;20282;-72
2023/06/20 02:22:49;;;;;;;0.70;0.70;;;;;;;20.46;100.00;100063.84;5070133;28;20199;-72
2023/06/20 02:25:22;;;;;;;0.70;0.70;;;;;;;20.49;100.00;100068.16;5074035;28;20199;-72
2023/06/20 02:27:53;;;;;;;0.70;0.70;;;;;;;20.53;100.00;100075.09;5073099;28;20248;-72
2023/06/20 02:30:22;;;;;;;0.80;0.80;;;;;;;20.27;100.00;100070.44;5070545;28;20227;-72
2023/06/20 02:32:51;;;;;;;0.70;0.70;;;;;;;20.21;100.00;100060.94;5074116;28;20572;-74
2023/06/20 02:35:22;;;;;;;0.80;0.80;;;;;;;19.85;100.00;100063.56;5074033;28;20666;-72
2023/06/20 02:37:50;;;;;;;0.65;0.65;;;;;;;19.94;100.00;100071.25;5073802;28;20203;-72
2023/06/20 02:40:23;;;;;;;0.50;0.50;;;;;;;19.88;100.00;100061.72;5074225;28;20201;-72
2023/06/20 02:42:51;;;;;;;0.65;0.65;;;;;;;19.91;100.00;100066.03;5073487;28;20195;-72
2023/06/20 02:45:18;;;;;;;0.80;0.80;;;;;;;19.86;100.00;100083.72;5073546;28;20290;-72
2023/06/20 02:47:59;;;;;;;1.05;0.98;;;;;;;20.02;100.00;100085.97;5074014;28;20191;-72
2023/06/20 02:50:29;;;;;;;0.77;0.77;;;;;;;19.96;100.00;100083.47;5073380;28;20205;-72
2023/06/20 02:53:07;;;;;;;0.63;0.63;;;;;;;20.03;100.00;100065.78;5073357;28;20199;-73
2023/06/20 02:55:39;;;;;;;0.70;0.70;;;;;;;19.90;100.00;100062.56;5073717;28;20198;-73
2023/06/20 02:58:11;;;;;;;0.80;0.80;;;;;;;20.00;100.00;100082.50;5073466;28;20199;-73
2023/06/20 03:00:39;;;;;;;0.60;0.60;;;;;;;19.96;100.00;100091.38;5073434;28;20644;-72
2023/06/20 03:03:10;;;;;;;0.70;0.70;;;;;;;20.01;100.00;100088.66;5018800;28;20196;-73
2023/06/20 03:05:42;;;;;;;0.70;0.70;;;;;;;20.09;100.00;100087.53;5018580;28;20638;-73
2023/06/20 03:08:09;;;;;;;0.80;0.80;;;;;;;19.72;100.00;100057.72;5068264;28;20290;-73
2023/06/20 03:10:37;;;;;;;0.70;0.70;;;;;;;20.03;100.00;100098.22;5073368;28;20233;-73
2023/06/20 03:13:06;;;;;;;2.22;1.17;;;;;;;20.05;100.00;100091.16;5072601;28;20198;-73
2023/06/20 03:15:34;;;;;;;0.70;0.70;;;;;;;19.98;100.00;100068.50;5073457;28;20203;-73
2023/06/20 03:18:01;;;;;;;0.77;0.77;;;;;;;20.16;100.00;100099.66;5073406;28;20373;-73
2023/06/20 03:20:29;;;;;;;1.02;0.98;;;;;;;20.17;100.00;100106.66;5072658;28;20198;-73
2023/06/20 03:22:55;;;;;;;0.80;0.80;;;;;;;20.16;100.00;100107.56;5073219;28;20289;-73
2023/06/20 03:25:22;;;;;;;0.65;0.65;;;;;;;20.34;100.00;100108.03;5073386;28;20706;-73
2023/06/20 03:27:49;;;;;;;0.65;0.65;;;;;;;20.40;100.00;100113.19;5072738;28;20272;-73
2023/06/20 03:30:16;;;;;;;0.70;0.70;;;;;;;20.29;100.00;100073.94;5073302;28;20268;-72
2023/06/20 03:32:44;;;;;;;0.70;0.70;;;;;;;20.59;100.00;100111.81;5072586;28;20312;-73
2023/06/20 03:35:11;;;;;;;0.80;0.80;;;;;;;20.54;100.00;100096.16;5072693;28;20194;-72
2023/06/20 03:37:38;;;;;;;0.77;0.77;;;;;;;20.73;100.00;100107.06;5072518;28;20576;-73
2023/06/20 03:40:06;;;;;;;0.70;0.70;;;;;;;20.98;100.00;100115.19;5072526;28;20256;-72
2023/06/20 03:42:33;;;;;;;1.10;0.90;;;;;;;21.00;100.00;100111.63;5072585;28;20229;-74
2023/06/20 03:45:00;;;;;;;0.70;0.70;;;;;;;21.43;100.00;100121.00;5072322;28;20203;-74
2023/06/20 03:47:27;;;;;;;0.70;0.70;;;;;;;21.77;100.00;100122.59;5072450;28;20256;-72
2023/06/20 03:49:55;;;;;;;0.73;0.73;;;;;;;21.99;100.00;100135.19;5072709;28;20252;-73
2023/06/20 03:52:22;;;;;;;0.98;0.98;;;;;;;21.99;100.00;100141.34;5071653;28;20751;-73
2023/06/20 03:54:48;;;;;;;0.80;0.80;;;;;;;22.09;100.00;100149.84;5072321;28;20207;-74
2023/06/20 03:57:15;;;;;;;0.80;0.80;;;;;;;22.10;100.00;100152.44;5072608;28;20198;-72
2023/06/20 03:59:42;;;;;;;0.80;0.80;;;;;;;22.03;100.00;100158.81;5021048;28;20207;-72
2023/06/20 04:02:09;;;;;;;0.70;0.70;;;;;;;22.13;100.00;100162.91;5069224;28;20634;-73
2023/06/20 04:04:37;;;;;;;0.90;0.90;;;;;;;22.13;100.00;100160.25;5072371;28;20595;-73
2023/06/20 04:07:08;;;;;;;0.65;0.65;;;;;;;22.28;100.00;100176.53;5072491;28;20288;-73
2023/06/20 04:09:35;;;;;;;0.70;0.70;;;;;;;22.18;100.00;100170.69;5071763;28;20245;-73
2023/06/20 04:12:02;;;;;;;0.70;0.70;;;;;;;22.27;100.00;100165.09;5053479;28;20227;-72
2023/06/20 04:14:29;;;;;;;0.60;0.60;;;;;;;22.40;100.00;100170.88;5072035;28;20209;-72
2023/06/20 04:16:56;;;;;;;0.90;0.90;;;;;;;22.44;100.00;100178.66;5053643;28;20202;-72
2023/06/20 04:19:22;;;;;;;0.70;0.70;;;;;;;22.04;100.00;100117.44;5072282;28;20199;-73
2023/06/20 04:21:49;;;;;;;1.05;1.05;;;;;;;22.37;100.00;100174.47;5072176;28;20199;-74
2023/06/20 04:24:17;;;;;;;0.70;0.70;;;;;;;22.48;100.00;100182.94;5071662;28;20202;-75
2023/06/20 04:26:44;;;;;;;0.70;0.70;;;;;;;22.29;100.00;100151.88;5071643;28;20677;-76
2023/06/20 04:29:11;;;;;;;1.17;0.95;;;;;;;22.40;100.00;100157.69;5071553;28;20203;-75
2023/06/20 04:31:38;;;;;;;0.70;0.70;;;;;;;22.70;100.00;100167.28;5071521;28;20681;-76
2023/06/20 04:34:04;;;;;;;5.60;1.90;;;;;;;22.94;100.00;100161.16;5070431;28;20340;-76
2023/06/20 04:36:33;;;;;;;0.80;0.80;;;;;;;23.59;100.00;100165.91;5056453;28;20215;-77
2023/06/20 04:39:01;;;;;;;0.60;0.60;;;;;;;24.26;100.00;100152.81;5060686;28;20663;-77
2023/06/20 04:41:29;;;;;;;1.08;0.85;;;;;;;25.43;100.00;100177.91;5065125;28;20264;-77
2023/06/20 04:43:56;;;;;;;0.80;0.80;;;;;;;26.52;100.00;100175.47;5068408;28;20202;-77
2023/06/20 04:46:23;;;;;;;1.10;1.00;;;;;;;27.74;94.54;100181.63;5066178;28;20717;-75
2023/06/20 04:48:49;;;;;;;0.70;0.70;;;;;;;28.60;82.03;100191.06;5065882;28;20332;-75
2023/06/20 04:51:16;;;;;;;1.25;0.95;;;;;;;28.61;79.68;100192.81;5034863;28;20223;-75
2023/06/20 04:53:43;;;;;;;0.60;0.60;;;;;;;28.25;82.10;100201.06;5071870;28;20268;-74
2023/06/20 04:56:10;;;;;;;0.98;0.82;;;;;;;28.19;84.92;100204.06;5052951;28;20290;-74
2023/06/20 04:58:38;;;;;;;1.20;0.88;;;;;;;29.08;79.01;100190.91;5064856;28;20206;-74
2023/06/20 05:01:04;;;;;;;0.70;0.70;;;;;;;28.96;79.52;100213.88;5064032;28;20207;-75
2023/06/20 05:03:31;;;;;;;0.73;0.73;;;;;;;28.64;84.09;100217.50;5063088;28;20211;-74
2023/06/20 05:05:58;;;;;;;0.70;0.70;;;;;;;27.95;92.14;100222.25;5066695;28;20229;-76
2023/06/20 05:08:25;;;;;;;2.15;0.98;;;;;;;27.38;93.51;100199.53;5061221;28;20215;-73
2023/06/20 05:10:51;;;;;;;1.35;1.25;;;;;;;27.23;97.45;100224.28;5070749;28;20606;-80
2023/06/20 05:13:18;;;;;;;0.70;0.70;;;;;;;27.31;99.02;100214.97;5057974;28;20222;-74
2023/06/20 05:15:46;;;;;;;2.80;1.25;;;;;;;28.13;95.31;100217.75;5065585;28;20253;-73
2023/06/20 05:18:13;;;;;;;0.70;0.70;;;;;;;29.05;86.95;100224.00;5036036;28;20210;-74
2023/06/20 05:20:40;;;;;;;0.55;0.55;;;;;;;29.84;81.17;100235.28;5023938;28;20195;-74
2023/06/20 05:23:07;;;;;;;0.70;0.70;;;;;;;29.49;79.72;100212.50;5070747;28;20206;-73
2023/06/20 05:25:34;;;;;;;0.98;0.98;;;;;;;29.62;80.79;100239.31;5071379;28;20206;-73
2023/06/20 05:28:01;;;;;;;0.70;0.70;;;;;;;29.97;78.63;100249.59;5071073;28;20202;-75
2023/06/20 05:30:28;;;;;;;0.60;0.60;;;;;;;30.32;74.72;100267.94;5062979;28;20230;-73
2023/06/20 05:32:56;;;;;;;1.48;0.82;;;;;;;30.96;71.28;100270.03;5062118;28;20219;-75
2023/06/20 05:35:22;;;;;;;0.93;0.93;;;;;;;30.84;70.08;100260.09;5058598;28;20203;-73
2023/06/20 05:37:50;;;;;;;0.50;0.50;;;;;;;31.30;68.49;100268.63;5052960;28;20207;-74
2023/06/20 05:40:17;;;;;;;0.95;0.75;;;;;;;31.47;66.40;100260.31;5049571;28;20289;-74
2023/06/20 05:42:44;;;;;;;0.70;0.70;;;;;;;30.95;67.97;100250.41;5060947;28;20260;-74
2023/06/20 05:45:11;;;;;;;0.60;0.60;;;;;;;31.56;66.05;100265.09;5063854;28;20207;-74
2023/06/20 05:47:38;;;;;;;0.60;0.60;;;;;;;31.73;65.15;100262.09;5050300;28;20217;-74
2023/06/20 05:50:08;;;;;;;1.17;0.85;;;;;;;32.24;61.67;100270.16;5070325;28;20214;-74
2023/06/20 05:52:35;;;;;;;0.55;0.55;;;;;;;31.70;61.43;100256.94;5070436;28;20230;-75
2023/06/20 05:55:02;;;;;;;0.50;0.50;;;;;;;30.39;69.00;100263.91;5035453;28;20587;-75
2023/06/20 05:57:29;;;;;;;1.13;0.82;;;;;;;30.27;72.20;100262.88;5070115;28;20218;-75
2023/06/20 05:59:56;;;;;;;0.60;0.60;;;;;;;30.55;68.10;100275.38;5063125;28;20207;-73
2023/06/20 06:02:22;;;;;;;0.60;0.60;;;;;;;30.57;67.62;100272.63;5062331;28;20198;-75
2023/06/20 06:04:49;;;;;;;1.33;0.95;;;;;;;29.97;70.85;100256.75;5065097;28;20211;-74
2023/06/20 06:07:18;;;;;;;0.70;0.70;;;;;;;29.69;75.48;100260.25;5069591;28;20230;-74
2023/06/20 06:09:44;;;;;;;0.90;0.82;;;;;;;29.30;77.00;100267.97;5035560;28;20587;-74
2023/06/20 06:12:11;;;;;;;0.70;0.70;;;;;;;29.45;78.90;100272.41;5072306;28;20567;-75
2023/06/20 06:14:38;;;;;;;1.85;0.95;;;;;;;29.58;77.72;100273.41;5068886;28;20286;-76
2023/06/20 06:17:05;;;;;;;0.60;0.60;;;;;;;29.38;79.23;100273.75;5054184;28;20689;-75
2023/06/20 06:19:32;;;;;;;0.60;0.60;;;;;;;28.90;80.53;100286.28;5061248;28;20198;-74
2023/06/20 06:21:59;;;;;;;0.85;0.70;;;;;;;28.13;87.24;100279.06;5073874;28;20203;-75
2023/06/20 06:24:27;;;;;;;0.82;0.82;;;;;;;28.20;88.62;100264.47;5059004;28;20199;-75
2023/06/20 06:26:54;;;;;;;0.77;0.77;;;;;;;28.65;90.43;100269.91;5071623;28;20214;-74
2023/06/20 06:29:20;;;;;;;2.03;1.42;;;;;;;28.42;88.17;100265.88;5072997;28;20210;-75
2023/06/20 06:31:47;;;;;;;0.63;0.63;;;;;;;28.07;91.82;100273.13;5073729;28;20284;-75
2023/06/20 06:34:17;;;;;;;0.68;0.68;;;;;;;27.97;92.39;100263.00;5071947;28;20191;-74
2023/06/20 06:36:48;;;;;;;0.75;0.75;;;;;;;27.57;95.03;100232.28;5054690;28;20207;-75
2023/06/20 06:39:17;;;;;;;0.70;0.70;;;;;;;28.14;92.49;100259.47;5056675;28;20260;-74
2023/06/20 06:41:47;;;;;;;0.82;0.82;;;;;;;27.71;94.17;100239.56;5055552;28;20214;-75
2023/06/20 06:44:14;;;;;;;0.80;0.80;;;;;;;27.00;94.12;100260.06;5056375;28;20207;-75
2023/06/20 06:46:41;;;;;;;1.38;1.13;;;;;;;27.15;100.00;100253.94;5072883;28;20198;-74
2023/06/20 06:49:08;;;;;;;0.65;0.65;;;;;;;27.34;97.02;100257.41;5072522;28;20199;-74
2023/06/20 06:51:35;;;;;;;0.70;0.70;;;;;;;27.24;92.96;100258.81;5068104;28;20199;-75
2023/06/20 06:54:01;;;;;;;1.50;0.98;;;;;;;26.94;93.27;100237.25;5035480;28;20223;-74
2023/06/20 06:56:28;;;;;;;1.55;0.90;;;;;;;26.50;98.11;100251.84;5052902;28;20199;-75
2023/06/20 06:59:00;;;;;;;1.10;0.82;;;;;;;26.67;100.00;100251.03;5053137;28;20207;-74
2023/06/20 07:01:28;;;;;;;5.68;1.15;;;;;;;26.84;97.64;100259.94;5052623;28;20234;-74
2023/06/20 07:03:54;;;;;;;0.70;0.70;;;;;;;26.84;93.37;100270.59;5057977;28;20211;-75
2023/06/20 07:06:21;;;;;;;0.70;0.70;;;;;;;26.42;93.56;100193.69;5055414;28;20204;-75
2023/06/20 07:08:48;;;;;;;0.85;0.82;;;;;;;26.49;94.59;100266.94;5052764;28;20269;-75
2023/06/20 07:11:16;;;;;;;2.25;1.10;;;;;;;26.23;92.98;100287.69;5056028;28;20207;-75
2023/06/20 07:13:43;;;;;;;0.80;0.80;;;;;;;25.72;94.79;100209.34;5052158;28;20309;-74
2023/06/20 07:16:11;;;;;;;0.70;0.70;;;;;;;26.30;95.48;100297.97;5056672;28;20203;-73
2023/06/20 07:18:38;;;;;;;1.95;1.05;;;;;;;26.49;95.46;100295.31;5043215;28;20211;-76
2023/06/20 07:21:05;;;;;;;1.13;1.13;;;;;;;26.69;91.61;100297.88;5057309;28;20231;-76
2023/06/20 07:23:33;;;;;;;0.85;0.85;;;;;;;26.30;87.92;100302.41;5052554;28;20203;-76
2023/06/20 07:25:59;;;;;;;3.40;1.30;;;;;;;26.49;90.33;100293.53;5057819;28;20576;-76
2023/06/20 07:28:28;;;;;;;0.65;0.65;;;;;;;26.20;94.78;100293.13;5053389;28;20208;-76
2023/06/20 07:30:55;;;;;;;0.80;0.80;;;;;;;26.21;99.69;100293.09;5058852;28;20665;-76
2023/06/20 07:33:23;;;;;;;0.82;0.80;;;;;;;26.48;97.33;100293.59;5052951;28;20733;-75
2023/06/20 07:35:50;;;;;;;0.70;0.70;;;;;;;26.43;96.48;100282.31;5065501;28;20207;-75
2023/06/20 07:38:17;;;;;;;0.77;0.77;;;;;;;26.76;94.60;100294.00;5072972;28;20206;-75
2023/06/20 07:40:43;;;;;;;0.60;0.60;;;;;;;26.39;94.04;100283.38;5053951;28;20203;-75
2023/06/20 07:43:10;;;;;;;0.77;0.77;;;;;;;26.64;97.34;100265.34;5072829;28;20210;-75
2023/06/20 07:45:37;;;;;;;1.48;0.95;;;;;;;26.45;92.90;100286.63;5072367;28;20199;-75
2023/06/20 07:48:04;;;;;;;1.00;0.90;;;;;;;26.70;94.53;100274.81;5072041;28;20226;-75
2023/06/20 07:50:32;;;;;;;1.45;1.10;;;;;;;26.55;93.49;100281.72;5036306;28;20226;-75
2023/06/20 07:52:59;;;;;;;0.70;0.70;;;;;;;26.79;95.72;100285.88;5072070;28;20230;-75
2023/06/20 07:55:26;;;;;;;3.30;1.60;;;;;;;26.39;95.70;100283.38;5071863;28;20191;-75
2023/06/20 07:57:55;;;;;;;0.80;0.80;;;;;;;26.50;97.29;100297.06;5071961;28;20198;-75
2023/06/20 08:00:24;;;;;;;0.60;0.60;;;;;;;26.52;99.57;100281.88;5071266;28;20198;-75
2023/06/20 08:02:51;;;;;;;0.90;0.90;;;;;;;26.65;95.10;100303.44;5072083;28;20209;-77
2023/06/20 08:05:18;;;;;;;0.82;0.77;;;;;;;26.29;95.50;100298.06;5071873;28;20203;-76
2023/06/20 08:07:46;;;;;;;0.80;0.80;;;;;;;26.52;97.87;100298.69;5036716;28;20666;-76
2023/06/20 08:10:13;;;;;;;0.68;0.68;;;;;;;26.34;97.42;100293.38;5071299;28;20202;-76
2023/06/20 08:12:39;;;;;;;1.48;0.93;;;;;;;26.39;94.33;100302.00;5036474;28;20226;-75
2023/06/20 08:15:07;;;;;;;0.75;0.75;;;;;;;26.75;94.28;100323.34;5071200;28;20210;-74
2023/06/20 08:17:34;;;;;;;0.70;0.70;;;;;;;26.48;95.97;100325.50;5071718;28;20203;-76
2023/06/20 08:20:01;;;;;;;1.08;0.90;;;;;;;26.82;94.70;100327.47;5071841;28;20210;-76
2023/06/20 08:22:27;;;;;;;0.90;0.90;;;;;;;27.07;91.05;100323.56;5036219;28;20213;-76
2023/06/20 08:24:55;;;;;;;0.98;0.85;;;;;;;27.15;90.98;100340.97;5035868;28;20203;-75
2023/06/20 08:27:22;;;;;;;0.80;0.80;;;;;;;27.17;92.83;100333.75;5071287;28;20199;-75
2023/06/20 08:29:49;;;;;;;0.68;0.68;;;;;;;27.08;93.87;100335.06;5070619;28;20199;-75
2023/06/20 08:32:16;;;;;;;0.70;0.70;;;;;;;26.71;94.24;100335.94;5071367;28;20206;-75
2023/06/20 08:34:42;;;;;;;1.20;1.02;;;;;;;26.63;94.03;100253.84;5059821;28;20592;-74
2023/06/20 08:37:09;;;;;;;0.73;0.73;;;;;;;27.23;95.46;100322.78;5054620;28;20211;-78
2023/06/20 08:39:36;;;;;;;0.75;0.75;;;;;;;27.44;94.64;100322.59;5066420;28;20203;-78
2023/06/20 08:42:05;;;;;;;0.70;0.70;;;;;;;27.61;93.44;100318.25;5072075;28;20201;-79
2023/06/20 08:44:34;;;;;;;1.08;1.08;;;;;;;27.10;90.96;100323.41;5062004;28;20204;-78
2023/06/20 08:47:00;;;;;;;0.60;0.60;;;;;;;26.83;89.17;100311.44;5071275;28;20230;-78
2023/06/20 08:49:27;;;;;;;0.70;0.70;;;;;;;27.09;89.59;100332.34;5071600;28;20209;-78
2023/06/20 08:51:57;;;;;;;1.42;0.85;;;;;;;27.10;89.54;100334.06;5071398;28;20260;-78
2023/06/20 08:54:26;;;;;;;0.60;0.60;;;;;;;26.87;91.33;100336.97;5071334;28;20610;-79
2023/06/20 08:56:55;;;;;;;1.00;1.00;;;;;;;26.86;95.51;100337.88;5071339;28;20689;-76
2023/06/20 08:59:24;;;;;;;0.70;0.70;;;;;;;26.83;100.00;100313.22;5071467;28;20195;-79
2023/06/20 09:01:50;;;;;;;0.60;0.60;;;;;;;26.93;97.66;100334.00;5071426;28;20263;-78
2023/06/20 09:04:19;;;;;;;0.73;0.73;;;;;;;26.91;94.43;100330.56;5071183;28;20581;-77
2023/06/20 09:06:50;;;;;;;0.68;0.68;;;;;;;27.15;92.96;100325.00;5071295;28;20203;-78
2023/06/20 09:09:18;;;;;;;1.27;0.85;;;;;;;26.72;97.26;100332.31;5070964;28;20285;-80
2023/06/20 09:11:52;;;;;;;0.77;0.77;;;;;;;26.74;100.00;100324.28;5061463;28;20204;-78
2023/06/20 09:14:19;;;;;;;0.70;0.70;;;;;;;26.76;96.48;100304.63;5068059;28;20231;-79
2023/06/20 09:16:49;;;;;;;0.60;0.60;;;;;;;26.51;100.00;100325.34;5071312;28;20632;-79
2023/06/20 09:19:16;;;;;;;0.70;0.70;;;;;;;26.29;100.00;100311.34;5057037;28;20199;-79
2023/06/20 09:21:43;;;;;;;0.70;0.70;;;;;;;25.93;100.00;100293.44;5070923;28;20215;-80
2023/06/20 09:24:10;;;;;;;0.80;0.80;;;;;;;26.28;100.00;100305.16;5071112;28;20214;-80
2023/06/20 09:26:37;;;;;;;0.82;0.82;;;;;;;26.32;99.23;100308.53;5071165;28;20217;-80
2023/06/20 09:29:09;;;;;;;0.70;0.70;;;;;;;26.66;93.83;100326.44;5058579;28;20682;-80
2023/06/20 09:31:43;;;;;;;0.70;0.70;;;;;;;26.59;92.82;100326.75;5064701;28;20222;-80
2023/06/20 09:34:13;;;;;;;0.70;0.70;;;;;;;26.55;94.99;100324.28;5052367;28;20594;-78
2023/06/20 09:36:43;;;;;;;2.90;1.15;;;;;;;26.44;92.54;100318.59;5071846;28;20332;-77
2023/06/20 09:39:12;;;;;;;1.05;0.88;;;;;;;26.33;93.08;100315.56;5075229;28;20206;-79
2023/06/20 09:41:44;;;;;;;0.75;0.75;;;;;;;26.72;90.88;100321.69;5071365;28;20590;-80
2023/06/20 09:44:12;;;;;;;0.85;0.80;;;;;;;26.97;90.22;100316.06;5064831;28;20207;-77
2023/06/20 09:46:39;;;;;;;0.60;0.60;;;;;;;26.78;86.20;100316.09;5071350;28;20251;-77
2023/06/20 09:49:06;;;;;;;0.63;0.63;;;;;;;26.58;81.46;100318.81;5074704;28;20636;-80
2023/06/20 09:51:38;;;;;;;1.23;0.90;;;;;;;26.83;81.76;100322.06;5074112;28;20202;-79
2023/06/20 09:54:06;;;;;;;0.57;0.57;;;;;;;26.69;76.62;100323.63;5074547;28;20225;-79
2023/06/20 09:56:41;;;;;;;0.70;0.70;;;;;;;26.74;75.26;100322.50;5074293;28;20214;-80
2023/06/20 09:59:10;;;;;;;0.85;0.70;;;;;;;26.59;77.64;100310.78;5074178;28;20237;-78
2023/06/20 10:01:39;;;;;;;0.75;0.75;;;;;;;26.72;76.43;100328.84;5074101;28;20238;-78
2023/06/20 10:04:07;;;;;;;0.60;0.60;;;;;;;27.05;74.41;100330.75;5074500;28;20289;-78
2023/06/20 10:06:37;;;;;;;0.90;0.80;;;;;;;27.03;72.95;100310.47;5074211;28;20211;-80
2023/06/20 10:09:07;;;;;;;0.57;0.57;;;;;;;27.14;74.22;100336.56;5075015;28;20284;-78
2023/06/20 10:11:34;;;;;;;0.82;0.82;;;;;;;27.22;70.45;100337.06;5073664;28;20241;-78
2023/06/20 10:14:02;;;;;;;0.68;0.68;;;;;;;27.49;71.36;100325.06;5074288;28;20230;-78
2023/06/20 10:16:29;;;;;;;0.70;0.70;;;;;;;27.36;70.68;100324.75;5074267;28;20210;-78
2023/06/20 10:18:56;;;;;;;3.92;1.40;;;;;;;27.09;70.78;100297.72;5056043;28;20203;-79
2023/06/20 10:21:57;;;;;;;1.00;0.82;;;;;;;27.56;69.39;100326.47;5041715;28;20195;-79
2023/06/20 10:24:27;;;;;;;0.65;0.65;;;;;;;27.52;70.91;100312.44;5054150;28;20196;-77
2023/06/20 10:26:54;;;;;;;0.77;0.77;;;;;;;27.44;72.74;100319.91;5067564;28;20258;-79
2023/06/20 10:29:22;;;;;;;1.88;1.08;;;;;;;27.72;69.63;100326.56;5074417;28;20286;-78
2023/06/20 10:31:55;;;;;;;1.00;1.00;;;;;;;27.64;69.56;100312.75;5074970;28;20321;-78
2023/06/20 10:34:36;;;;;;;0.90;0.90;;;;;;;27.76;70.29;100317.44;5079593;28;20226;-78
2023/06/20 10:37:17;;;;;;;0.60;0.60;;;;;;;28.01;69.15;100323.22;5075519;28;20210;-79
2023/06/20 10:39:54;;;;;;;0.60;0.60;;;;;;;28.04;68.37;100318.56;5068858;28;20286;-76
2023/06/20 10:42:38;;;;;;;0.70;0.70;;;;;;;28.21;67.90;100314.19;5054846;28;20594;-76
2023/06/20 10:45:20;;;;;;;1.02;0.90;;;;;;;28.42;67.48;100313.03;5035200;28;20245;-77
2023/06/20 10:47:47;;;;;;;0.63;0.63;;;;;;;28.33;64.72;100319.72;5072985;28;20226;-75
2023/06/20 10:50:15;;;;;;;0.70;0.70;;;;;;;28.43;62.34;100320.09;5074305;28;20689;-81
2023/06/20 10:52:44;;;;;;;0.60;0.60;;;;;;;28.36;64.23;100297.38;5075866;28;20214;-77
2023/06/20 10:55:14;;;;;;;1.95;1.02;;;;;;;28.73;62.86;100309.56;5073359;28;20276;-75
2023/06/20 10:57:45;;;;;;;0.70;0.70;;;;;;;28.67;61.66;100293.84;5073540;28;20248;-75
2023/06/20 11:00:14;;;;;;;1.17;0.85;;;;;;;28.33;61.15;100305.50;5073453;28;20198;-74
2023/06/20 11:02:43;;;;;;;1.23;0.90;;;;;;;28.29;62.23;100302.16;5073600;28;20214;-77
2023/06/20 11:05:10;;;;;;;1.33;0.93;;;;;;;28.05;62.37;100298.97;5073344;28;20244;-77
2023/06/20 11:07:52;;;;;;;0.98;0.98;;;;;;;28.68;60.28;100304.47;5038229;28;20716;-77
2023/06/20 11:10:20;;;;;;;0.70;0.70;;;;;;;28.96;59.90;100299.31;5059945;28;20211;-77
2023/06/20 11:12:48;;;;;;;0.73;0.73;;;;;;;28.94;57.26;100293.19;5061152;28;20207;-78
2023/06/20 11:15:23;;;;;;;1.45;0.75;;;;;;;28.79;58.28;100303.88;5071427;28;20245;-77
2023/06/20 11:17:50;;;;;;;0.65;0.65;;;;;;;28.97;57.35;100301.00;5073331;28;20202;-79
2023/06/20 11:20:17;;;;;;;1.17;1.08;;;;;;;29.14;57.01;100277.81;5058639;28;20206;-79
2023/06/20 11:22:46;;;;;;;0.60;0.60;;;;;;;29.38;53.61;100300.47;5037612;28;20252;-76
2023/06/20 11:25:22;;;;;;;0.88;0.88;;;;;;;29.79;53.38;100296.16;5072838;28;20276;-77
2023/06/20 11:27:48;;;;;;;0.50;0.50;;;;;;;29.48;53.04;100296.28;5074487;28;20701;-77